Adams, North Carolina
Current Conditions -  °F | °C
As of 3:35 AM on Sunday 21 Dec 2014 (Local Time) from KTNB Reporting Station
Broken Clouds Broken Clouds  
Wind Chill: 37°   Ceiling: 400
Heat Index: 37°   Visibility: 10mi
Dew Point: 36°   Wind: 0mph
Humidity: 98%   Direction: NA
Pressure: 30.16"   Gusts: NA
Location:  36.2085°N, 81.6605°W
Report Text: KTNB 210835Z AUTO 00000KT 10SM BKN004 BKN012 BKN029 03/02 A3016 RMK AO2 T00250022
Loading
Personal Weather Stations






























Interactive Weather Map New forecast layout! Learn more

10-Day Weather Forecast

Advertisements
Track Severe Weather on mobile